Karan — A8NB3 — position and weather

sailwx.info

Track history (hours):
 
Tides and Currents Weather Stations Pressure Air Temp Water Temp Dewpoint Dewpoint Depression Visibility Wind Speed Wind Dir Waves Ship Positions

Karan

Last reported at 2017-Feb-08 09:07 UTC. Time now 2017-Apr-27 03:24 UTC.
Position S 30°27' E 031°07'.
Warning: this ship's position is months out of date.

Length 333 m; draft 22 m.

Type: Ship (hazmat cat B). MMSI: 636013451.

Date/timePositionNaut miles runAvg speedWind from/ knotsBaromVisibWave heightAir tempDewpointWater temp
2017-Feb-08 09:07S 30°27' E 031°07'713.1
2017-Feb-08 08:33S 30°19' E 031°08'1313.4
2017-Feb-08 07:33S 30°06' E 031°08'1211.9
2017-Feb-08 06:33S 29°54' E 031°08'3 3.0
2017-Feb-08 05:33S 29°52' E 031°10'9 8.5
2017-Feb-08 04:33S 29°48' E 031°19'1110.6
2017-Feb-08 03:33S 29°43' E 031°29'1110.8
2017-Feb-08 02:33S 29°39' E 031°41'1111.1
2017-Feb-08 01:33S 29°38' E 031°54'1111.3
2017-Feb-08 00:33S 29°33' E 032°06'4 4.2
2017-Feb-07 23:33S 29°29' E 032°05'10 9.7
2017-Feb-07 22:33S 29°23' E 032°14'1211.1
2017-Feb-07 21:31S 29°13' E 032°22'1111.0
2017-Feb-07 20:33S 29°05' E 032°29'1110.7
2017-Feb-07 19:33S 28°56' E 032°36'1010.4
2017-Feb-07 18:33S 28°48' E 032°43'1310.1
2017-Feb-07 17:17S 28°37' E 032°52'10 9.8
2017-Feb-07 16:13S 28°29' E 032°59'  
Track history (hours):
 
Tides and Currents Weather Stations Pressure Air Temp Water Temp Dewpoint Dewpoint Depression Visibility Wind Speed Wind Dir Waves Ship Positions

Karan

Last reported at 2017-Feb-08 09:07 UTC. Time now 2017-Apr-27 03:24 UTC.
Position S 30°27' E 031°07'.
Warning: this ship's position is months out of date.

Length 333 m; draft 22 m.

Type: Ship (hazmat cat B). MMSI: 636013451.

Date/timePositionNaut miles runAvg speedWind from/ knotsBaromVisibWave heightAir tempDewpointWater temp
2017-Feb-08 09:07S 30°27' E 031°07'713.1
2017-Feb-08 08:33S 30°19' E 031°08'1313.4
2017-Feb-08 07:33S 30°06' E 031°08'1211.9
2017-Feb-08 06:33S 29°54' E 031°08'3 3.0
2017-Feb-08 05:33S 29°52' E 031°10'9 8.5
2017-Feb-08 04:33S 29°48' E 031°19'1110.6
2017-Feb-08 03:33S 29°43' E 031°29'1110.8
2017-Feb-08 02:33S 29°39' E 031°41'1111.1
2017-Feb-08 01:33S 29°38' E 031°54'1111.3
2017-Feb-08 00:33S 29°33' E 032°06'4 4.2
2017-Feb-07 23:33S 29°29' E 032°05'10 9.7
2017-Feb-07 22:33S 29°23' E 032°14'1211.1
2017-Feb-07 21:31S 29°13' E 032°22'1111.0
2017-Feb-07 20:33S 29°05' E 032°29'1110.7
2017-Feb-07 19:33S 28°56' E 032°36'1010.4
2017-Feb-07 18:33S 28°48' E 032°43'1310.1
2017-Feb-07 17:17S 28°37' E 032°52'10 9.8
2017-Feb-07 16:13S 28°29' E 032°59'  

Dump ship's entire track history